Time;durP1;ratioP1;P1;durP2;ratioP2;P2;SDS_P1;SDS_P2;PMS_P1;PMS_P2;Temp;Humidity;BMP_temperature;BMP_pressure;BME280_temperature;BME280_humidity;BME280_pressure;Samples;Min_cycle;Max_cycle;Signal;HPM_P1;HPM_P2
2022/10/29 00:01:18;;;;;;;3.88;2.53;;;;;;;13.10;100.00;101587.97;4876064;29;20049;-73
2022/10/29 00:03:48;;;;;;;7.40;3.33;;;;;;;13.13;100.00;101582.88;4869683;29;20132;-77
2022/10/29 00:06:17;;;;;;;7.63;3.22;;;;;;;13.14;100.00;101588.94;4868879;29;20057;-75
2022/10/29 00:08:47;;;;;;;4.25;2.95;;;;;;;13.12;100.00;101585.41;4869241;29;20055;-73
2022/10/29 00:11:26;;;;;;;3.33;2.38;;;;;;;13.12;100.00;101586.28;4869345;29;20045;-72
2022/10/29 00:13:57;;;;;;;6.53;3.05;;;;;;;13.11;100.00;101586.25;4867777;29;20148;-72
2022/10/29 00:16:28;;;;;;;5.40;2.75;;;;;;;13.10;100.00;101579.28;4867954;29;20551;-72
2022/10/29 00:18:57;;;;;;;4.45;2.90;;;;;;;13.12;100.00;101581.09;4869482;29;20495;-72
2022/10/29 00:21:27;;;;;;;6.05;2.95;;;;;;;13.15;100.00;101576.00;4875925;29;20132;-74
2022/10/29 00:23:58;;;;;;;3.90;2.50;;;;;;;13.16;100.00;101582.09;4869357;29;20715;-75
2022/10/29 00:26:28;;;;;;;6.57;4.05;;;;;;;13.20;100.00;101582.22;4869999;29;20056;-74
2022/10/29 00:28:58;;;;;;;6.63;3.80;;;;;;;13.19;100.00;101571.78;4869197;29;20499;-74
2022/10/29 00:31:27;;;;;;;5.63;3.60;;;;;;;13.19;100.00;101583.06;4870611;29;20052;-74
2022/10/29 00:33:56;;;;;;;7.28;3.83;;;;;;;13.21;100.00;101583.97;4873903;29;20095;-74
2022/10/29 00:36:27;;;;;;;6.72;3.90;;;;;;;13.24;100.00;101595.31;4865241;29;20454;-74
2022/10/29 00:38:57;;;;;;;5.95;3.80;;;;;;;13.25;100.00;101589.31;4864383;29;20132;-74
2022/10/29 00:41:28;;;;;;;5.90;3.85;;;;;;;13.23;100.00;101593.56;4867673;29;20061;-74
2022/10/29 00:44:28;;;;;;;9.13;4.90;;;;;;;13.22;100.00;101592.69;4870032;29;20057;-73
2022/10/29 00:47:03;;;;;;;7.55;4.15;;;;;;;13.24;100.00;101608.31;4865522;29;20479;-71
2022/10/29 00:49:33;;;;;;;6.95;4.57;;;;;;;13.23;100.00;101612.63;4868664;29;20128;-72
2022/10/29 00:52:05;;;;;;;6.90;4.20;;;;;;;13.24;100.00;101619.63;4863819;29;20065;-71
2022/10/29 00:54:39;;;;;;;9.20;4.27;;;;;;;13.23;100.00;101609.16;4880254;29;20424;-72
2022/10/29 00:57:11;;;;;;;8.25;4.88;;;;;;;13.21;100.00;101609.97;4869277;29;20053;-71
2022/10/29 00:59:41;;;;;;;8.55;4.72;;;;;;;13.19;100.00;101595.16;4870272;29;20502;-72
2022/10/29 01:02:11;;;;;;;6.13;3.90;;;;;;;13.21;100.00;101607.38;4872091;29;20060;-71
2022/10/29 01:04:41;;;;;;;9.50;4.82;;;;;;;13.22;100.00;101600.47;4870576;29;20053;-70
2022/10/29 01:07:09;;;;;;;7.63;4.53;;;;;;;13.20;100.00;101600.41;4873997;29;20045;-71
2022/10/29 01:09:40;;;;;;;9.57;4.22;;;;;;;13.15;100.00;101604.59;4872097;29;20694;-73
2022/10/29 01:12:33;;;;;;;8.20;4.95;;;;;;;13.12;100.00;101606.19;4874332;29;20199;-72
2022/10/29 01:15:08;;;;;;;11.82;5.63;;;;;;;13.12;100.00;101606.19;4868229;29;20053;-72
2022/10/29 01:17:50;;;;;;;10.65;5.28;;;;;;;13.11;100.00;101613.13;4873726;29;20720;-71
2022/10/29 01:20:51;;;;;;;11.77;6.77;;;;;;;13.11;100.00;101612.25;4875010;29;20515;-72
2022/10/29 01:23:48;;;;;;;10.82;5.40;;;;;;;13.10;100.00;101619.16;4866300;29;20045;-74
2022/10/29 01:26:42;;;;;;;9.82;5.07;;;;;;;13.12;100.00;101627.00;4872508;29;20407;-73
2022/10/29 01:29:28;;;;;;;10.07;5.75;;;;;;;13.05;100.00;101615.50;4873910;29;20396;-73
2022/10/29 01:32:05;;;;;;;13.73;5.68;;;;;;;13.16;100.00;101623.66;4873858;29;20053;-72
2022/10/29 01:34:41;;;;;;;12.95;5.50;;;;;;;13.17;100.00;101623.72;4871080;29;20053;-73
2022/10/29 01:37:19;;;;;;;11.15;5.13;;;;;;;13.15;100.00;101627.97;4872877;29;20084;-72
2022/10/29 01:39:56;;;;;;;10.45;5.07;;;;;;;13.14;100.00;101626.19;4864818;29;20061;-73
2022/10/29 01:42:33;;;;;;;7.78;4.05;;;;;;;13.12;100.00;101627.88;4872553;29;20491;-73
2022/10/29 01:45:11;;;;;;;9.18;5.38;;;;;;;13.12;100.00;101629.59;4872538;29;20060;-73
2022/10/29 01:47:45;;;;;;;10.52;5.90;;;;;;;13.12;100.00;101638.25;4874901;29;20104;-73
2022/10/29 01:50:19;;;;;;;10.30;6.32;;;;;;;13.13;100.00;101640.03;4864866;29;20140;-73
2022/10/29 01:52:49;;;;;;;11.75;6.80;;;;;;;13.13;100.00;101634.84;4871563;29;20468;-72
2022/10/29 01:55:20;;;;;;;11.43;7.00;;;;;;;13.13;100.00;101633.97;4870429;29;20053;-71
2022/10/29 01:57:49;;;;;;;14.07;6.70;;;;;;;13.13;100.00;101634.84;4857598;29;20114;-71
2022/10/29 02:00:19;;;;;;;14.95;6.88;;;;;;;13.12;100.00;101639.97;4875033;29;20049;-72
2022/10/29 02:03:01;;;;;;;14.30;7.35;;;;;;;13.11;100.00;101641.69;4870960;29;20114;-71
2022/10/29 02:05:35;;;;;;;12.10;5.70;;;;;;;13.13;100.00;101645.25;4871660;29;20085;-71
2022/10/29 02:08:18;;;;;;;16.52;7.07;;;;;;;13.15;100.00;101650.50;4877518;29;20077;-70
2022/10/29 02:10:54;;;;;;;13.02;6.65;;;;;;;13.16;100.00;101650.53;4867725;29;20534;-71
2022/10/29 02:13:28;;;;;;;10.40;6.85;;;;;;;13.17;100.00;101654.91;4877869;29;20049;-73
2022/10/29 02:15:59;;;;;;;12.00;6.85;;;;;;;13.19;100.00;101655.84;4876923;29;20064;-71
2022/10/29 02:18:30;;;;;;;10.95;6.00;;;;;;;13.20;100.00;101652.41;4872920;29;20061;-74
2022/10/29 02:20:58;;;;;;;10.95;6.10;;;;;;;13.21;100.00;101653.28;4870616;29;20184;-72
2022/10/29 02:23:27;;;;;;;13.15;6.85;;;;;;;13.22;100.00;101655.06;4868097;29;20053;-71
2022/10/29 02:25:56;;;;;;;9.38;5.43;;;;;;;13.22;100.00;101657.66;4865320;29;20059;-73
2022/10/29 02:28:25;;;;;;;10.50;6.20;;;;;;;13.20;100.00;101665.38;4874657;29;20049;-72
2022/10/29 02:30:53;;;;;;;11.50;6.03;;;;;;;13.21;100.00;101661.94;4869107;29;20073;-72
2022/10/29 02:33:22;;;;;;;10.38;6.03;;;;;;;13.21;100.00;101668.88;4871156;29;20059;-72
2022/10/29 02:35:52;;;;;;;11.23;5.68;;;;;;;13.21;100.00;101663.66;4874270;29;20443;-71
2022/10/29 02:38:21;;;;;;;9.43;5.60;;;;;;;13.22;100.00;101675.84;4871628;29;20500;-71
2022/10/29 02:40:49;;;;;;;10.32;6.05;;;;;;;13.22;100.00;101675.84;4873573;29;20083;-72
2022/10/29 02:43:18;;;;;;;11.57;6.15;;;;;;;13.21;100.00;101674.94;4874208;29;20057;-71
2022/10/29 02:45:49;;;;;;;11.88;6.45;;;;;;;13.23;100.00;101681.94;4871057;29;20057;-71
2022/10/29 02:48:18;;;;;;;7.57;5.75;;;;;;;13.21;100.00;101674.94;4876298;29;20044;-72
2022/10/29 02:50:46;;;;;;;11.77;6.88;;;;;;;13.19;100.00;101680.94;4877905;29;20053;-72
2022/10/29 02:53:17;;;;;;;10.95;6.47;;;;;;;13.20;100.00;101688.78;4866969;29;20053;-73
2022/10/29 02:55:45;;;;;;;12.25;6.22;;;;;;;13.20;100.00;101698.31;4874455;29;20048;-72
2022/10/29 02:58:14;;;;;;;10.27;6.00;;;;;;;13.16;100.00;101691.22;4873649;29;20053;-70
2022/10/29 03:00:42;;;;;;;13.93;6.28;;;;;;;13.15;100.00;101695.53;4872061;29;20396;-70
2022/10/29 03:03:11;;;;;;;11.15;5.20;;;;;;;13.15;100.00;101695.53;4871423;29;20053;-70
2022/10/29 03:05:39;;;;;;;10.30;6.35;;;;;;;13.17;100.00;101706.88;4874108;29;20049;-70
2022/10/29 03:08:08;;;;;;;10.70;5.75;;;;;;;13.18;100.00;101699.97;4871228;29;20059;-71
2022/10/29 03:10:38;;;;;;;11.45;6.20;;;;;;;13.16;100.00;101697.31;4870934;29;20547;-71
2022/10/29 03:13:07;;;;;;;9.43;6.13;;;;;;;13.13;100.00;101701.53;4869181;29;20060;-73
2022/10/29 03:15:35;;;;;;;10.20;5.60;;;;;;;13.16;100.00;101707.69;4873464;29;20049;-73
2022/10/29 03:18:04;;;;;;;11.70;5.90;;;;;;;13.16;100.00;101707.69;4873100;29;20057;-72
2022/10/29 03:20:33;;;;;;;10.93;6.30;;;;;;;13.18;100.00;101715.56;4868406;29;20116;-72
2022/10/29 03:23:01;;;;;;;7.97;4.85;;;;;;;13.16;100.00;101717.22;4872624;29;20109;-74
2022/10/29 03:25:30;;;;;;;10.02;5.00;;;;;;;13.17;100.00;101722.47;4869561;29;20052;-74
2022/10/29 03:28:01;;;;;;;7.10;4.35;;;;;;;13.14;100.00;101717.16;4873753;29;20076;-72
2022/10/29 03:30:29;;;;;;;7.70;4.72;;;;;;;13.13;100.00;101719.72;4873890;29;20051;-73
2022/10/29 03:32:58;;;;;;;6.93;4.28;;;;;;;13.12;100.00;101721.41;4871884;29;20052;-73
2022/10/29 03:35:26;;;;;;;7.00;4.75;;;;;;;13.12;100.00;101721.41;4869517;29;20049;-74
2022/10/29 03:37:55;;;;;;;7.57;4.13;;;;;;;13.11;100.00;101717.06;4873603;29;20105;-71
2022/10/29 03:40:24;;;;;;;7.75;4.40;;;;;;;13.08;100.00;101716.97;4871805;29;20057;-70
2022/10/29 03:42:52;;;;;;;5.93;3.75;;;;;;;13.06;100.00;101710.81;4872636;29;20053;-72
2022/10/29 03:45:30;;;;;;;8.55;4.38;;;;;;;13.07;100.00;101722.97;4869693;29;20045;-71
2022/10/29 03:47:58;;;;;;;10.55;4.47;;;;;;;13.08;100.00;101722.16;4870495;29;20059;-73
2022/10/29 03:50:27;;;;;;;7.15;3.90;;;;;;;13.08;100.00;101724.75;4871257;29;20052;-73
2022/10/29 03:52:56;;;;;;;6.07;4.13;;;;;;;13.09;100.00;101729.09;4872550;29;20488;-73
2022/10/29 03:55:24;;;;;;;6.28;4.07;;;;;;;13.06;100.00;101726.41;4870248;29;20143;-73
2022/10/29 03:57:53;;;;;;;5.82;3.47;;;;;;;13.05;100.00;101729.81;4865783;29;20051;-72
2022/10/29 04:00:22;;;;;;;5.53;3.25;;;;;;;13.05;100.00;101735.03;4866800;29;20051;-73
2022/10/29 04:02:52;;;;;;;5.57;3.72;;;;;;;13.02;100.00;101729.72;4870181;29;20052;-74
2022/10/29 04:05:21;;;;;;;8.20;5.53;;;;;;;13.01;100.00;101733.16;4867289;29;20060;-73
2022/10/29 04:07:49;;;;;;;8.00;3.95;;;;;;;13.01;100.00;101743.56;4870226;29;20500;-72
2022/10/29 04:10:18;;;;;;;5.15;3.78;;;;;;;13.02;100.00;101739.25;4870260;29;20109;-74
2022/10/29 04:12:47;;;;;;;6.20;3.65;;;;;;;13.04;100.00;101742.78;4865329;29;20060;-74
2022/10/29 04:15:16;;;;;;;6.57;3.55;;;;;;;13.05;100.00;101734.16;4865043;29;20048;-74
2022/10/29 04:17:44;;;;;;;4.55;2.95;;;;;;;13.04;100.00;101730.66;4876609;29;20061;-74
2022/10/29 04:20:15;;;;;;;4.60;3.00;;;;;;;13.08;100.00;101742.03;4871311;29;20057;-75
2022/10/29 04:22:43;;;;;;;4.65;3.40;;;;;;;13.08;100.00;101745.53;4872475;29;20053;-75
2022/10/29 04:25:12;;;;;;;9.85;3.17;;;;;;;13.08;100.00;101750.75;4866435;29;20049;-72
2022/10/29 04:27:40;;;;;;;5.05;3.25;;;;;;;13.07;100.00;101754.16;4869523;29;20049;-75
2022/10/29 04:30:10;;;;;;;6.28;3.67;;;;;;;13.08;100.00;101750.75;4866192;29;20072;-74
2022/10/29 04:32:39;;;;;;;5.80;3.70;;;;;;;13.11;100.00;101749.97;4865962;29;20490;-73
2022/10/29 04:35:08;;;;;;;5.00;3.40;;;;;;;13.08;100.00;101755.94;4872450;29;20064;-73
2022/10/29 04:37:38;;;;;;;4.90;3.50;;;;;;;13.02;100.00;101755.72;4869879;29;20049;-74
2022/10/29 04:40:08;;;;;;;10.20;3.40;;;;;;;12.92;100.00;101745.84;4873530;29;20514;-74
2022/10/29 04:42:37;;;;;;;4.60;2.90;;;;;;;12.87;100.00;101747.34;4870675;29;20041;-74
2022/10/29 04:45:07;;;;;;;6.68;3.85;;;;;;;12.96;100.00;101761.59;4874424;29;20068;-75
2022/10/29 04:47:36;;;;;;;5.15;3.17;;;;;;;12.99;100.00;101763.41;4877289;29;20049;-75
2022/10/29 04:50:05;;;;;;;4.85;3.30;;;;;;;13.00;100.00;101763.44;4870558;29;20465;-75
2022/10/29 04:52:33;;;;;;;5.35;3.20;;;;;;;13.00;100.00;101765.16;4866604;29;20053;-74
2022/10/29 04:55:04;;;;;;;4.50;2.95;;;;;;;12.98;100.00;101769.41;4867536;29;20512;-74
2022/10/29 04:57:32;;;;;;;9.75;3.53;;;;;;;12.97;100.00;101767.66;4869563;29;20109;-74
2022/10/29 05:00:01;;;;;;;4.72;2.97;;;;;;;13.00;100.00;101770.34;4875940;29;20658;-74
2022/10/29 05:02:29;;;;;;;4.82;3.33;;;;;;;13.02;100.00;101770.41;4884656;29;20044;-74
2022/10/29 05:04:58;;;;;;;4.85;3.08;;;;;;;13.04;100.00;101776.56;4869443;29;20043;-73
2022/10/29 05:07:26;;;;;;;6.97;3.65;;;;;;;13.05;100.00;101776.59;4866618;29;20473;-74
2022/10/29 05:09:55;;;;;;;6.15;3.75;;;;;;;13.08;100.00;101781.00;4873755;29;20634;-74
2022/10/29 05:12:25;;;;;;;5.65;3.60;;;;;;;13.09;100.00;101781.06;4868539;29;20135;-73
2022/10/29 05:14:54;;;;;;;4.22;2.85;;;;;;;13.09;100.00;101777.59;4892635;29;20048;-74
2022/10/29 05:17:22;;;;;;;4.68;2.90;;;;;;;13.10;100.00;101782.84;4883940;29;20065;-72
2022/10/29 05:19:51;;;;;;;4.43;3.03;;;;;;;13.11;100.00;101791.53;4876079;29;20139;-73
2022/10/29 05:22:19;;;;;;;10.07;3.30;;;;;;;13.10;100.00;101790.66;4865948;29;20060;-73
2022/10/29 05:24:48;;;;;;;4.60;3.03;;;;;;;13.12;100.00;101799.38;4878114;29;20495;-72
2022/10/29 05:27:16;;;;;;;5.15;3.00;;;;;;;13.11;100.00;101797.59;4876369;29;20064;-73
2022/10/29 05:29:46;;;;;;;5.13;2.80;;;;;;;13.13;100.00;101803.75;4866432;29;20152;-73
2022/10/29 05:32:15;;;;;;;5.97;3.60;;;;;;;13.14;100.00;101810.69;4874522;29;20060;-73
2022/10/29 05:34:43;;;;;;;6.10;3.58;;;;;;;13.15;100.00;101809.88;4876652;29;20053;-73
2022/10/29 05:37:12;;;;;;;8.18;3.45;;;;;;;13.15;100.00;101809.88;4875488;29;20057;-73
2022/10/29 05:39:40;;;;;;;4.53;2.80;;;;;;;13.13;100.00;101814.13;4882803;29;20533;-72
2022/10/29 05:42:09;;;;;;;3.53;2.70;;;;;;;13.12;100.00;101822.75;4874463;29;20053;-72
2022/10/29 05:44:37;;;;;;;4.57;3.10;;;;;;;13.11;100.00;101818.41;4873799;29;20056;-72
2022/10/29 05:47:09;;;;;;;6.70;3.38;;;;;;;13.10;100.00;101824.44;4869686;29;20053;-72
2022/10/29 05:49:37;;;;;;;7.43;3.30;;;;;;;13.13;100.00;101828.84;4868029;29;20045;-72
2022/10/29 05:52:06;;;;;;;6.32;3.40;;;;;;;13.13;100.00;101832.34;4866503;29;20056;-72
2022/10/29 05:54:34;;;;;;;4.93;2.45;;;;;;;13.14;100.00;101834.09;4871971;29;20045;-72
2022/10/29 05:57:03;;;;;;;2.83;2.10;;;;;;;13.12;100.00;101830.53;4877559;29;20543;-74
2022/10/29 05:59:32;;;;;;;3.38;2.35;;;;;;;13.11;100.00;101833.09;4866562;29;20053;-76
2022/10/29 06:02:00;;;;;;;4.93;1.88;;;;;;;13.11;100.00;101836.59;4867538;29;20064;-77
2022/10/29 06:04:30;;;;;;;2.97;1.92;;;;;;;13.10;100.00;101840.03;4863630;29;20140;-75
2022/10/29 06:06:59;;;;;;;2.97;2.00;;;;;;;13.11;100.00;101843.50;4871499;29;20086;-75
2022/10/29 06:09:28;;;;;;;2.90;1.88;;;;;;;13.11;100.00;101838.31;4870237;29;20053;-76
2022/10/29 06:11:56;;;;;;;4.28;1.75;;;;;;;13.10;100.00;101845.22;4873380;29;20053;-74
2022/10/29 06:14:25;;;;;;;3.10;1.88;;;;;;;13.10;100.00;101841.72;4869121;29;20052;-76
2022/10/29 06:16:53;;;;;;;4.35;2.22;;;;;;;13.09;100.00;101850.34;4870057;29;20431;-76
2022/10/29 06:19:22;;;;;;;3.05;1.92;;;;;;;13.10;100.00;101852.09;4871327;29;20105;-76
2022/10/29 06:21:52;;;;;;;4.90;2.25;;;;;;;13.11;100.00;101854.78;4875959;29;20053;-75
2022/10/29 06:24:21;;;;;;;3.95;1.80;;;;;;;13.11;100.00;101854.78;4874072;29;20135;-77
2022/10/29 06:26:49;;;;;;;3.85;2.60;;;;;;;13.11;100.00;101854.78;4869348;29;20555;-77
2022/10/29 06:29:18;;;;;;;5.20;2.53;;;;;;;13.11;100.00;101854.78;4872469;29;20112;-77
2022/10/29 06:31:46;;;;;;;5.95;3.75;;;;;;;13.10;100.00;101858.22;4875077;29;20487;-77
2022/10/29 06:34:15;;;;;;;6.35;4.03;;;;;;;13.08;100.00;101858.97;4869212;29;20649;-77
2022/10/29 06:36:44;;;;;;;6.88;3.92;;;;;;;13.03;100.00;101856.19;4866653;29;20181;-77
2022/10/29 06:39:14;;;;;;;6.63;3.30;;;;;;;12.98;100.00;101857.75;4867589;29;20049;-77
2022/10/29 06:41:42;;;;;;;6.35;3.53;;;;;;;12.97;100.00;101862.06;4869101;29;20523;-77
2022/10/29 06:44:11;;;;;;;5.05;3.10;;;;;;;12.98;100.00;101868.13;4867778;29;20496;-77
2022/10/29 06:46:40;;;;;;;9.30;4.53;;;;;;;12.97;100.00;101867.25;4868078;29;20073;-78
2022/10/29 06:49:09;;;;;;;7.82;4.10;;;;;;;12.95;100.00;101858.50;4881449;29;20060;-77
2022/10/29 06:51:37;;;;;;;5.50;3.47;;;;;;;12.84;100.00;101845.97;4871816;29;20136;-77
2022/10/29 06:54:06;;;;;;;4.60;3.03;;;;;;;12.88;100.00;101856.53;4873614;29;20053;-77
2022/10/29 06:56:36;;;;;;;3.97;2.70;;;;;;;12.87;100.00;101853.84;4875912;29;20637;-77
2022/10/29 06:59:05;;;;;;;5.10;3.25;;;;;;;12.87;100.00;101852.13;4876611;29;20055;-77
2022/10/29 07:01:33;;;;;;;6.82;3.38;;;;;;;12.87;100.00;101857.34;4874436;29;20053;-77
2022/10/29 07:04:02;;;;;;;4.70;2.70;;;;;;;12.86;100.00;101854.69;4874472;29;20049;-77
2022/10/29 07:06:33;;;;;;;5.32;2.78;;;;;;;12.87;100.00;101859.03;4871313;29;20503;-77
2022/10/29 07:09:02;;;;;;;5.35;2.80;;;;;;;12.89;100.00;101857.41;4876627;29;20135;-77
2022/10/29 07:11:31;;;;;;;4.45;2.45;;;;;;;12.91;100.00;101851.44;4870378;29;20049;-77
2022/10/29 07:14:01;;;;;;;2.70;1.80;;;;;;;12.95;100.00;101857.63;4877382;29;20604;-77
2022/10/29 07:16:30;;;;;;;3.53;1.83;;;;;;;12.97;100.00;101850.78;4870690;29;20049;-77
2022/10/29 07:18:58;;;;;;;4.82;2.70;;;;;;;12.99;100.00;101849.13;4869298;29;20126;-77
2022/10/29 07:21:27;;;;;;;3.45;2.00;;;;;;;13.00;100.00;101850.88;4871243;29;20554;-77
2022/10/29 07:23:56;;;;;;;4.15;2.30;;;;;;;12.99;100.00;101854.34;4872240;29;20063;-77
2022/10/29 07:26:24;;;;;;;4.07;2.65;;;;;;;13.00;100.00;101861.28;4871387;29;20056;-76
2022/10/29 07:28:57;;;;;;;4.05;2.58;;;;;;;12.99;100.00;101860.41;4876749;29;20061;-76
2022/10/29 07:31:28;;;;;;;4.57;2.55;;;;;;;13.00;100.00;101861.28;4876370;29;20109;-77
2022/10/29 07:33:57;;;;;;;2.75;1.95;;;;;;;12.98;100.00;101852.53;4867586;29;20049;-77
2022/10/29 07:36:25;;;;;;;3.97;2.35;;;;;;;12.97;100.00;101858.59;4871693;29;20060;-77
2022/10/29 07:38:54;;;;;;;4.18;2.42;;;;;;;12.93;100.00;101854.97;4869963;29;20105;-76
2022/10/29 07:41:22;;;;;;;4.25;2.20;;;;;;;12.94;100.00;101863.66;4869944;29;20641;-77
2022/10/29 07:43:51;;;;;;;4.65;2.60;;;;;;;12.95;100.00;101858.50;4874586;29;20487;-77
2022/10/29 07:46:20;;;;;;;7.18;3.25;;;;;;;12.97;100.00;101863.78;4875229;29;20053;-77
2022/10/29 07:48:50;;;;;;;4.22;2.50;;;;;;;12.98;100.00;101862.94;4875609;29;20499;-77
2022/10/29 07:51:18;;;;;;;5.82;2.60;;;;;;;12.98;100.00;101861.22;4876632;29;20498;-76
2022/10/29 07:53:47;;;;;;;4.18;2.83;;;;;;;12.99;100.00;101864.72;4872919;29;20571;-76
2022/10/29 07:56:16;;;;;;;4.35;2.72;;;;;;;13.00;100.00;101874.28;4871562;29;20053;-77
2022/10/29 07:58:44;;;;;;;4.22;2.72;;;;;;;13.00;100.00;101872.56;4867553;29;20153;-77
2022/10/29 08:01:13;;;;;;;4.47;2.67;;;;;;;13.00;100.00;101874.28;4863610;29;20057;-77
2022/10/29 08:03:41;;;;;;;3.67;2.80;;;;;;;12.96;100.00;101877.56;4869962;29;20756;-76
2022/10/29 08:06:11;;;;;;;3.65;2.58;;;;;;;12.95;100.00;101879.28;4869676;29;20060;-76
2022/10/29 08:08:40;;;;;;;6.03;2.88;;;;;;;12.89;100.00;101862.59;4872531;29;20423;-77
2022/10/29 08:11:08;;;;;;;4.00;2.47;;;;;;;12.97;100.00;101874.16;4873939;29;20082;-77
2022/10/29 08:13:37;;;;;;;5.03;3.00;;;;;;;12.97;100.00;101880.25;4873130;29;20112;-76
2022/10/29 08:16:06;;;;;;;4.60;3.15;;;;;;;12.97;100.00;101876.78;4872574;29;20660;-76
2022/10/29 08:18:34;;;;;;;5.10;2.83;;;;;;;12.97;100.00;101876.78;4871077;29;20053;-77
2022/10/29 08:21:05;;;;;;;4.00;2.60;;;;;;;12.96;100.00;101883.69;4868436;29;20082;-77
2022/10/29 08:23:35;;;;;;;3.75;2.45;;;;;;;12.96;100.00;101878.50;4872169;29;20602;-78
2022/10/29 08:26:04;;;;;;;4.15;2.72;;;;;;;12.96;100.00;101875.88;4872664;29;20061;-77
2022/10/29 08:28:32;;;;;;;4.72;2.63;;;;;;;12.97;100.00;101874.16;4863799;29;20052;-77
2022/10/29 08:31:01;;;;;;;9.23;3.45;;;;;;;12.97;100.00;101879.38;4863731;29;20052;-77
2022/10/29 08:33:29;;;;;;;6.40;3.40;;;;;;;12.93;100.00;101869.69;4873177;29;20045;-77
2022/10/29 08:35:58;;;;;;;5.50;3.47;;;;;;;12.92;100.00;101880.91;4871695;29;20053;-77
2022/10/29 08:38:26;;;;;;;6.30;3.30;;;;;;;12.91;100.00;101872.22;4873776;29;20052;-77
2022/10/29 08:41:13;;;;;;;5.60;3.45;;;;;;;12.90;100.00;101877.38;4872374;29;20053;-77
2022/10/29 08:44:07;;;;;;;5.53;3.75;;;;;;;12.88;100.00;101881.63;4871194;29;20602;-77
2022/10/29 08:46:44;;;;;;;5.93;3.42;;;;;;;12.87;100.00;101879.84;4875645;29;20527;-77
2022/10/29 08:49:18;;;;;;;5.75;3.00;;;;;;;12.85;100.00;101876.28;4879431;29;20083;-76
2022/10/29 08:51:54;;;;;;;5.07;2.65;;;;;;;12.84;100.00;101869.34;4876475;29;20067;-78
2022/10/29 08:54:25;;;;;;;5.20;3.13;;;;;;;12.83;100.00;101877.94;4870348;29;20057;-77
2022/10/29 08:56:59;;;;;;;5.93;2.90;;;;;;;12.85;100.00;101881.47;4871822;29;20606;-77
2022/10/29 08:59:33;;;;;;;5.40;3.40;;;;;;;12.86;100.00;101878.94;4867999;29;20834;-77
2022/10/29 09:02:01;;;;;;;5.57;3.53;;;;;;;12.88;100.00;101879.91;4870411;29;20057;-76
2022/10/29 09:04:35;;;;;;;9.15;3.63;;;;;;;12.90;100.00;101875.66;4870027;29;20121;-76
2022/10/29 09:07:24;;;;;;;6.97;3.88;;;;;;;12.91;100.00;101872.22;4869466;29;20053;-76
2022/10/29 09:10:01;;;;;;;6.65;3.65;;;;;;;12.92;100.00;101871.41;4870546;29;20060;-77
2022/10/29 09:12:57;;;;;;;8.05;4.35;;;;;;;12.93;100.00;101867.09;4874197;29;20041;-76
2022/10/29 09:15:45;;;;;;;8.65;3.75;;;;;;;12.93;100.00;101867.97;4869634;29;20600;-77
2022/10/29 09:18:28;;;;;;;8.07;4.28;;;;;;;12.95;100.00;101874.09;4861298;29;20172;-77
2022/10/29 09:21:05;;;;;;;5.75;3.55;;;;;;;12.95;100.00;101871.50;4867695;29;20061;-77
2022/10/29 09:23:52;;;;;;;5.30;3.75;;;;;;;12.94;100.00;101864.56;4872720;29;20628;-76
2022/10/29 09:26:27;;;;;;;6.90;3.60;;;;;;;12.93;100.00;101872.28;4867175;29;20110;-77
2022/10/29 09:29:20;;;;;;;5.35;3.75;;;;;;;12.93;100.00;101870.56;4874372;29;20655;-76
2022/10/29 09:31:54;;;;;;;7.22;4.10;;;;;;;12.93;100.00;101874.88;4872236;29;20109;-76
2022/10/29 09:34:30;;;;;;;6.85;3.95;;;;;;;12.92;100.00;101873.13;4870987;29;20109;-77
2022/10/29 09:36:59;;;;;;;6.22;3.33;;;;;;;12.90;100.00;101878.25;4873294;29;20053;-77
2022/10/29 09:39:33;;;;;;;7.63;4.00;;;;;;;12.90;100.00;101879.97;4872518;29;20132;-76
2022/10/29 09:42:09;;;;;;;7.05;3.70;;;;;;;12.91;100.00;101881.72;4880671;29;20136;-76
2022/10/29 09:44:44;;;;;;;6.30;3.45;;;;;;;12.92;100.00;101889.59;4868601;29;20507;-76
2022/10/29 09:47:25;;;;;;;7.97;3.75;;;;;;;12.90;100.00;101885.16;4875048;29;20121;-76
2022/10/29 09:50:04;;;;;;;7.47;4.07;;;;;;;12.91;100.00;101884.31;4875390;29;20389;-77
2022/10/29 09:52:35;;;;;;;8.35;3.63;;;;;;;12.90;100.00;101892.97;4873681;29;20057;-76
2022/10/29 09:55:07;;;;;;;5.65;3.35;;;;;;;12.90;100.00;101891.22;4870804;29;20054;-77
2022/10/29 09:57:37;;;;;;;5.18;3.35;;;;;;;12.93;100.00;101891.34;4869787;29;20049;-76
2022/10/29 10:00:22;;;;;;;6.85;2.92;;;;;;;12.94;100.00;101897.41;4865107;29;20057;-76
2022/10/29 10:02:57;;;;;;;4.75;2.40;;;;;;;12.95;100.00;101896.59;4873908;29;20429;-77
2022/10/29 10:05:28;;;;;;;4.78;2.83;;;;;;;12.96;100.00;101898.38;4869268;29;20072;-77
2022/10/29 10:08:08;;;;;;;5.53;2.85;;;;;;;12.97;100.00;101892.34;4867519;29;20053;-76
2022/10/29 10:10:40;;;;;;;3.90;2.35;;;;;;;12.95;100.00;101894.88;4871763;29;20063;-76
2022/10/29 10:13:14;;;;;;;3.40;2.35;;;;;;;12.95;100.00;101894.00;4870333;29;20136;-76
2022/10/29 10:15:52;;;;;;;6.38;2.22;;;;;;;12.95;100.00;101894.00;4872474;29;20053;-76
2022/10/29 10:18:23;;;;;;;4.00;2.33;;;;;;;12.95;100.00;101900.09;4868982;29;20060;-76
2022/10/29 10:21:04;;;;;;;4.85;2.20;;;;;;;12.96;100.00;101896.66;4874393;29;20064;-77
2022/10/29 10:23:44;;;;;;;3.40;2.13;;;;;;;12.96;100.00;101893.16;4869076;29;20049;-76
2022/10/29 10:26:32;;;;;;;4.78;2.58;;;;;;;12.95;100.00;101894.00;4873020;29;20888;-76
2022/10/29 10:29:15;;;;;;;4.53;3.50;;;;;;;12.91;100.00;101882.59;4865852;29;20658;-76
2022/10/29 10:31:47;;;;;;;5.32;3.35;;;;;;;12.90;100.00;101887.75;4868984;29;20506;-76
2022/10/29 10:34:18;;;;;;;3.53;2.70;;;;;;;12.89;100.00;101883.38;4881735;29;20076;-77
2022/10/29 10:36:52;;;;;;;5.63;2.90;;;;;;;12.91;100.00;101881.72;4870400;29;20598;-76
2022/10/29 10:39:28;;;;;;;4.20;2.65;;;;;;;12.93;100.00;101887.88;4874911;29;20586;-75
2022/10/29 10:41:58;;;;;;;4.25;2.47;;;;;;;12.94;100.00;101887.03;4870781;29;20053;-75
2022/10/29 10:44:28;;;;;;;4.88;2.80;;;;;;;12.92;100.00;101879.19;4879697;29;20472;-75
2022/10/29 10:47:01;;;;;;;4.22;2.40;;;;;;;12.94;100.00;101881.81;4873268;29;20083;-76
2022/10/29 10:49:34;;;;;;;4.18;2.20;;;;;;;12.94;100.00;101876.63;4868477;29;20056;-74
2022/10/29 10:52:13;;;;;;;4.70;2.92;;;;;;;12.95;100.00;101883.63;4873368;29;20060;-76
2022/10/29 10:54:46;;;;;;;5.35;2.70;;;;;;;12.96;100.00;101877.56;4868725;29;20576;-76
2022/10/29 10:57:21;;;;;;;;;;;;;;;12.96;100.00;101874.97;4875528;29;20045;-76
2022/10/29 10:59:57;;;;;;;4.90;2.15;;;;;;;12.93;100.00;101875.75;4869869;29;19927;-76
2022/10/29 11:02:35;;;;;;;2.92;1.90;;;;;;;12.91;100.00;101867.00;4868321;29;20053;-77
2022/10/29 11:05:19;;;;;;;2.60;1.85;;;;;;;12.90;100.00;101867.84;4867157;29;20143;-76
2022/10/29 11:08:00;;;;;;;3.67;2.38;;;;;;;12.90;100.00;101872.19;4873381;29;20057;-77
2022/10/29 11:10:36;;;;;;;4.70;2.05;;;;;;;12.89;100.00;101872.97;4869714;29;20060;-77
2022/10/29 11:13:12;;;;;;;2.55;1.85;;;;;;;12.91;100.00;101879.13;4869843;29;20061;-77
2022/10/29 11:15:48;;;;;;;2.58;1.77;;;;;;;12.91;100.00;101881.72;4866359;29;20057;-76
2022/10/29 11:18:45;;;;;;;5.35;2.15;;;;;;;12.92;100.00;101878.31;4873547;29;20073;-76
2022/10/29 11:21:20;;;;;;;1.90;1.35;;;;;;;12.91;100.00;101877.41;4868708;29;20059;-76
2022/10/29 11:23:57;;;;;;;3.92;1.42;;;;;;;12.92;100.00;101878.31;4870334;29;20044;-76
2022/10/29 11:26:33;;;;;;;1.58;1.23;;;;;;;12.92;100.00;101878.31;4872057;29;20045;-76
2022/10/29 11:29:11;;;;;;;2.40;1.27;;;;;;;12.90;100.00;101880.84;4871871;29;20061;-76
2022/10/29 11:31:48;;;;;;;1.65;1.10;;;;;;;12.90;100.00;101885.16;4871302;29;20134;-76
2022/10/29 11:34:25;;;;;;;1.42;1.10;;;;;;;12.89;100.00;101872.97;4871195;29;20041;-76
2022/10/29 11:37:01;;;;;;;1.60;1.30;;;;;;;12.90;100.00;101885.16;4868892;29;20057;-76
2022/10/29 11:39:34;;;;;;;2.08;1.40;;;;;;;12.89;100.00;101875.59;4870068;29;20527;-76